sensor_id;sensor_type;location;lat;lon;timestamp;P1;durP1;ratioP1;P2;durP2;ratioP2
26965;SDS011;14522;52.068;4.414;2022-10-13T00:01:33;10.52;;;4.38;;
26965;SDS011;14522;52.068;4.414;2022-10-13T00:03:59;15.32;;;5.35;;
26965;SDS011;14522;52.068;4.414;2022-10-13T00:06:26;13.43;;;5.43;;
26965;SDS011;14522;52.068;4.414;2022-10-13T00:08:52;10.98;;;5.13;;
26965;SDS011;14522;52.068;4.414;2022-10-13T00:11:23;12.75;;;4.95;;
26965;SDS011;14522;52.068;4.414;2022-10-13T00:13:50;11.15;;;4.72;;
26965;SDS011;14522;52.068;4.414;2022-10-13T00:16:18;12.95;;;5.38;;
26965;SDS011;14522;52.068;4.414;2022-10-13T00:18:45;16.55;;;5.75;;
26965;SDS011;14522;52.068;4.414;2022-10-13T00:21:12;9.55;;;4.60;;
26965;SDS011;14522;52.068;4.414;2022-10-13T00:23:39;15.93;;;5.57;;
26965;SDS011;14522;52.068;4.414;2022-10-13T00:26:07;14.02;;;4.72;;
26965;SDS011;14522;52.068;4.414;2022-10-13T00:28:34;10.38;;;5.63;;
26965;SDS011;14522;52.068;4.414;2022-10-13T00:31:00;12.85;;;5.40;;
26965;SDS011;14522;52.068;4.414;2022-10-13T00:33:26;12.55;;;6.25;;
26965;SDS011;14522;52.068;4.414;2022-10-13T00:35:53;12.00;;;6.15;;
26965;SDS011;14522;52.068;4.414;2022-10-13T00:38:20;13.32;;;6.10;;
26965;SDS011;14522;52.068;4.414;2022-10-13T00:40:47;14.18;;;6.32;;
26965;SDS011;14522;52.068;4.414;2022-10-13T00:43:18;12.05;;;6.35;;
26965;SDS011;14522;52.068;4.414;2022-10-13T00:45:44;16.35;;;6.78;;
26965;SDS011;14522;52.068;4.414;2022-10-13T00:48:11;10.07;;;6.38;;
26965;SDS011;14522;52.068;4.414;2022-10-13T00:50:38;16.70;;;6.40;;
26965;SDS011;14522;52.068;4.414;2022-10-13T00:53:05;14.68;;;6.65;;
26965;SDS011;14522;52.068;4.414;2022-10-13T00:55:33;17.50;;;6.35;;
26965;SDS011;14522;52.068;4.414;2022-10-13T00:58:02;16.75;;;7.13;;
26965;SDS011;14522;52.068;4.414;2022-10-13T01:00:31;20.88;;;7.78;;
26965;SDS011;14522;52.068;4.414;2022-10-13T01:02:57;15.10;;;6.88;;
26965;SDS011;14522;52.068;4.414;2022-10-13T01:05:24;15.75;;;7.80;;
26965;SDS011;14522;52.068;4.414;2022-10-13T01:07:50;18.65;;;8.00;;
26965;SDS011;14522;52.068;4.414;2022-10-13T01:13:13;16.92;;;8.30;;
26965;SDS011;14522;52.068;4.414;2022-10-13T01:15:50;14.68;;;7.97;;
26965;SDS011;14522;52.068;4.414;2022-10-13T01:18:31;15.00;;;5.90;;
26965;SDS011;14522;52.068;4.414;2022-10-13T01:23:55;15.65;;;7.40;;
26965;SDS011;14522;52.068;4.414;2022-10-13T01:26:49;13.02;;;6.95;;
26965;SDS011;14522;52.068;4.414;2022-10-13T01:30:04;17.27;;;7.25;;
26965;SDS011;14522;52.068;4.414;2022-10-13T01:34:40;16.13;;;7.30;;
26965;SDS011;14522;52.068;4.414;2022-10-13T01:37:18;7.47;;;4.70;;
26965;SDS011;14522;52.068;4.414;2022-10-13T01:39:54;10.65;;;6.32;;
26965;SDS011;14522;52.068;4.414;2022-10-13T01:45:07;11.38;;;7.35;;
26965;SDS011;14522;52.068;4.414;2022-10-13T01:47:35;10.25;;;6.38;;
26965;SDS011;14522;52.068;4.414;2022-10-13T01:50:02;12.10;;;7.45;;
26965;SDS011;14522;52.068;4.414;2022-10-13T01:52:31;11.18;;;6.40;;
26965;SDS011;14522;52.068;4.414;2022-10-13T01:55:03;15.18;;;7.68;;
26965;SDS011;14522;52.068;4.414;2022-10-13T01:57:33;11.52;;;6.30;;
26965;SDS011;14522;52.068;4.414;2022-10-13T02:00:00;15.93;;;7.28;;
26965;SDS011;14522;52.068;4.414;2022-10-13T02:02:28;11.05;;;6.53;;
26965;SDS011;14522;52.068;4.414;2022-10-13T02:07:27;11.65;;;6.50;;
26965;SDS011;14522;52.068;4.414;2022-10-13T02:10:02;13.52;;;6.57;;
26965;SDS011;14522;52.068;4.414;2022-10-13T02:15:00;12.25;;;6.30;;
26965;SDS011;14522;52.068;4.414;2022-10-13T02:17:27;9.68;;;5.93;;
26965;SDS011;14522;52.068;4.414;2022-10-13T02:19:55;16.20;;;6.70;;
26965;SDS011;14522;52.068;4.414;2022-10-13T02:22:23;12.98;;;6.47;;
26965;SDS011;14522;52.068;4.414;2022-10-13T02:24:52;13.43;;;6.88;;
26965;SDS011;14522;52.068;4.414;2022-10-13T02:27:18;13.75;;;6.65;;
26965;SDS011;14522;52.068;4.414;2022-10-13T02:29:49;13.23;;;7.28;;
26965;SDS011;14522;52.068;4.414;2022-10-13T02:32:15;11.55;;;6.57;;
26965;SDS011;14522;52.068;4.414;2022-10-13T02:34:42;14.02;;;6.75;;
26965;SDS011;14522;52.068;4.414;2022-10-13T02:37:09;13.70;;;7.55;;
26965;SDS011;14522;52.068;4.414;2022-10-13T02:39:35;11.60;;;6.97;;
26965;SDS011;14522;52.068;4.414;2022-10-13T02:42:02;14.70;;;7.95;;
26965;SDS011;14522;52.068;4.414;2022-10-13T02:44:28;13.98;;;7.15;;
26965;SDS011;14522;52.068;4.414;2022-10-13T02:46:54;12.73;;;7.65;;
26965;SDS011;14522;52.068;4.414;2022-10-13T02:49:21;15.23;;;8.35;;
26965;SDS011;14522;52.068;4.414;2022-10-13T02:51:47;14.90;;;7.72;;
26965;SDS011;14522;52.068;4.414;2022-10-13T02:54:13;19.45;;;8.35;;
26965;SDS011;14522;52.068;4.414;2022-10-13T02:56:40;16.75;;;8.57;;
26965;SDS011;14522;52.068;4.414;2022-10-13T02:59:06;15.93;;;7.80;;
26965;SDS011;14522;52.068;4.414;2022-10-13T03:01:32;11.90;;;6.78;;
26965;SDS011;14522;52.068;4.414;2022-10-13T03:03:59;14.13;;;6.93;;
26965;SDS011;14522;52.068;4.414;2022-10-13T03:06:25;13.63;;;6.88;;
26965;SDS011;14522;52.068;4.414;2022-10-13T03:08:51;19.20;;;7.03;;
26965;SDS011;14522;52.068;4.414;2022-10-13T03:11:18;13.35;;;6.95;;
26965;SDS011;14522;52.068;4.414;2022-10-13T03:13:44;12.35;;;6.18;;
26965;SDS011;14522;52.068;4.414;2022-10-13T03:16:10;11.57;;;5.47;;
26965;SDS011;14522;52.068;4.414;2022-10-13T03:18:37;11.40;;;5.88;;
26965;SDS011;14522;52.068;4.414;2022-10-13T03:21:04;12.27;;;6.95;;
26965;SDS011;14522;52.068;4.414;2022-10-13T03:23:31;11.23;;;6.47;;
26965;SDS011;14522;52.068;4.414;2022-10-13T03:25:58;11.85;;;6.68;;
26965;SDS011;14522;52.068;4.414;2022-10-13T03:28:24;14.13;;;6.30;;
26965;SDS011;14522;52.068;4.414;2022-10-13T03:30:58;15.60;;;6.72;;
26965;SDS011;14522;52.068;4.414;2022-10-13T03:33:25;14.98;;;7.22;;
26965;SDS011;14522;52.068;4.414;2022-10-13T03:35:51;12.90;;;6.65;;
26965;SDS011;14522;52.068;4.414;2022-10-13T03:38:17;10.40;;;5.90;;
26965;SDS011;14522;52.068;4.414;2022-10-13T03:40:44;7.60;;;4.75;;
26965;SDS011;14522;52.068;4.414;2022-10-13T03:43:10;15.68;;;7.18;;
26965;SDS011;14522;52.068;4.414;2022-10-13T03:45:36;13.30;;;7.50;;
26965;SDS011;14522;52.068;4.414;2022-10-13T03:48:03;16.15;;;7.35;;
26965;SDS011;14522;52.068;4.414;2022-10-13T03:50:29;11.52;;;6.53;;
26965;SDS011;14522;52.068;4.414;2022-10-13T03:52:55;13.50;;;7.93;;
26965;SDS011;14522;52.068;4.414;2022-10-13T03:55:21;20.20;;;8.00;;
26965;SDS011;14522;52.068;4.414;2022-10-13T03:57:48;11.10;;;6.43;;
26965;SDS011;14522;52.068;4.414;2022-10-13T04:00:14;16.52;;;7.20;;
26965;SDS011;14522;52.068;4.414;2022-10-13T04:02:41;10.32;;;6.45;;
26965;SDS011;14522;52.068;4.414;2022-10-13T04:05:07;23.17;;;7.40;;
26965;SDS011;14522;52.068;4.414;2022-10-13T04:07:34;13.90;;;6.78;;
26965;SDS011;14522;52.068;4.414;2022-10-13T04:10:00;13.20;;;7.57;;
26965;SDS011;14522;52.068;4.414;2022-10-13T04:12:26;13.10;;;7.40;;
26965;SDS011;14522;52.068;4.414;2022-10-13T04:14:53;11.10;;;5.93;;
26965;SDS011;14522;52.068;4.414;2022-10-13T04:17:19;14.50;;;7.50;;
26965;SDS011;14522;52.068;4.414;2022-10-13T04:19:45;13.52;;;7.30;;
26965;SDS011;14522;52.068;4.414;2022-10-13T04:22:12;15.93;;;6.82;;
26965;SDS011;14522;52.068;4.414;2022-10-13T04:24:38;17.80;;;7.28;;
26965;SDS011;14522;52.068;4.414;2022-10-13T04:27:04;12.68;;;6.85;;
26965;SDS011;14522;52.068;4.414;2022-10-13T04:29:31;18.50;;;7.22;;
26965;SDS011;14522;52.068;4.414;2022-10-13T04:32:00;13.43;;;6.82;;
26965;SDS011;14522;52.068;4.414;2022-10-13T04:34:26;16.65;;;7.20;;
26965;SDS011;14522;52.068;4.414;2022-10-13T04:36:52;14.75;;;7.07;;
26965;SDS011;14522;52.068;4.414;2022-10-13T04:39:19;16.55;;;6.68;;
26965;SDS011;14522;52.068;4.414;2022-10-13T04:41:45;13.73;;;6.25;;
26965;SDS011;14522;52.068;4.414;2022-10-13T04:44:12;16.15;;;7.55;;
26965;SDS011;14522;52.068;4.414;2022-10-13T04:46:38;16.05;;;6.97;;
26965;SDS011;14522;52.068;4.414;2022-10-13T04:49:04;14.45;;;6.75;;
26965;SDS011;14522;52.068;4.414;2022-10-13T04:51:31;21.02;;;7.53;;
26965;SDS011;14522;52.068;4.414;2022-10-13T04:53:58;18.10;;;7.57;;
26965;SDS011;14522;52.068;4.414;2022-10-13T04:56:24;18.33;;;6.90;;
26965;SDS011;14522;52.068;4.414;2022-10-13T04:58:51;18.63;;;6.75;;
26965;SDS011;14522;52.068;4.414;2022-10-13T05:01:21;17.17;;;7.18;;
26965;SDS011;14522;52.068;4.414;2022-10-13T05:03:55;15.57;;;7.10;;
26965;SDS011;14522;52.068;4.414;2022-10-13T05:06:22;15.93;;;6.35;;
26965;SDS011;14522;52.068;4.414;2022-10-13T05:08:49;13.15;;;6.25;;
26965;SDS011;14522;52.068;4.414;2022-10-13T05:11:16;17.10;;;7.47;;
26965;SDS011;14522;52.068;4.414;2022-10-13T05:13:42;11.60;;;6.32;;
26965;SDS011;14522;52.068;4.414;2022-10-13T05:16:09;13.10;;;6.78;;
26965;SDS011;14522;52.068;4.414;2022-10-13T05:18:36;12.82;;;6.22;;
26965;SDS011;14522;52.068;4.414;2022-10-13T05:21:06;15.30;;;6.55;;
26965;SDS011;14522;52.068;4.414;2022-10-13T05:23:32;17.95;;;7.93;;
26965;SDS011;14522;52.068;4.414;2022-10-13T05:26:03;17.17;;;6.35;;
26965;SDS011;14522;52.068;4.414;2022-10-13T05:28:30;19.20;;;7.10;;
26965;SDS011;14522;52.068;4.414;2022-10-13T05:30:56;17.35;;;6.85;;
26965;SDS011;14522;52.068;4.414;2022-10-13T05:33:23;13.35;;;6.50;;
26965;SDS011;14522;52.068;4.414;2022-10-13T05:35:49;14.15;;;6.75;;
26965;SDS011;14522;52.068;4.414;2022-10-13T05:38:15;8.05;;;2.90;;
26965;SDS011;14522;52.068;4.414;2022-10-13T05:40:42;17.52;;;5.80;;
26965;SDS011;14522;52.068;4.414;2022-10-13T05:43:08;13.75;;;6.20;;
26965;SDS011;14522;52.068;4.414;2022-10-13T05:45:34;17.52;;;6.38;;
26965;SDS011;14522;52.068;4.414;2022-10-13T05:48:01;16.08;;;6.32;;
26965;SDS011;14522;52.068;4.414;2022-10-13T05:50:27;11.57;;;6.03;;
26965;SDS011;14522;52.068;4.414;2022-10-13T05:52:53;12.20;;;6.10;;
26965;SDS011;14522;52.068;4.414;2022-10-13T05:55:20;20.00;;;5.47;;
26965;SDS011;14522;52.068;4.414;2022-10-13T05:57:47;9.70;;;3.33;;
26965;SDS011;14522;52.068;4.414;2022-10-13T06:00:15;10.70;;;5.50;;
26965;SDS011;14522;52.068;4.414;2022-10-13T06:02:44;10.40;;;5.10;;
26965;SDS011;14522;52.068;4.414;2022-10-13T06:05:12;12.02;;;5.05;;
26965;SDS011;14522;52.068;4.414;2022-10-13T06:07:39;10.45;;;4.38;;
26965;SDS011;14522;52.068;4.414;2022-10-13T06:10:05;11.20;;;4.80;;
26965;SDS011;14522;52.068;4.414;2022-10-13T06:12:31;5.53;;;3.30;;
26965;SDS011;14522;52.068;4.414;2022-10-13T06:14:58;5.50;;;3.40;;
26965;SDS011;14522;52.068;4.414;2022-10-13T06:17:24;4.85;;;2.20;;
26965;SDS011;14522;52.068;4.414;2022-10-13T06:19:50;6.13;;;2.33;;
26965;SDS011;14522;52.068;4.414;2022-10-13T06:22:17;7.38;;;3.05;;
26965;SDS011;14522;52.068;4.414;2022-10-13T06:24:44;15.68;;;5.03;;
26965;SDS011;14522;52.068;4.414;2022-10-13T06:27:10;13.75;;;6.00;;
26965;SDS011;14522;52.068;4.414;2022-10-13T06:29:37;15.20;;;5.45;;
26965;SDS011;14522;52.068;4.414;2022-10-13T06:32:03;13.40;;;6.00;;
26965;SDS011;14522;52.068;4.414;2022-10-13T06:34:29;10.30;;;5.60;;
26965;SDS011;14522;52.068;4.414;2022-10-13T06:36:56;12.10;;;6.07;;
26965;SDS011;14522;52.068;4.414;2022-10-13T06:39:23;13.75;;;7.00;;
26965;SDS011;14522;52.068;4.414;2022-10-13T06:41:49;14.80;;;6.53;;
26965;SDS011;14522;52.068;4.414;2022-10-13T06:44:16;11.55;;;6.20;;
26965;SDS011;14522;52.068;4.414;2022-10-13T06:46:42;14.85;;;7.00;;
26965;SDS011;14522;52.068;4.414;2022-10-13T06:49:08;6.90;;;3.88;;
26965;SDS011;14522;52.068;4.414;2022-10-13T06:51:35;9.80;;;5.78;;
26965;SDS011;14522;52.068;4.414;2022-10-13T06:54:02;11.02;;;6.22;;
26965;SDS011;14522;52.068;4.414;2022-10-13T06:56:28;9.82;;;4.63;;
26965;SDS011;14522;52.068;4.414;2022-10-13T06:58:55;12.68;;;5.88;;
26965;SDS011;14522;52.068;4.414;2022-10-13T07:01:21;10.27;;;6.13;;
26965;SDS011;14522;52.068;4.414;2022-10-13T07:03:48;10.57;;;4.97;;
26965;SDS011;14522;52.068;4.414;2022-10-13T07:06:15;9.40;;;5.65;;
26965;SDS011;14522;52.068;4.414;2022-10-13T07:08:41;10.23;;;4.80;;
26965;SDS011;14522;52.068;4.414;2022-10-13T07:11:09;8.18;;;5.40;;
26965;SDS011;14522;52.068;4.414;2022-10-13T07:13:41;7.32;;;5.50;;
26965;SDS011;14522;52.068;4.414;2022-10-13T07:16:12;9.40;;;5.25;;
26965;SDS011;14522;52.068;4.414;2022-10-13T07:18:38;9.50;;;5.07;;
26965;SDS011;14522;52.068;4.414;2022-10-13T07:21:05;8.48;;;4.70;;
26965;SDS011;14522;52.068;4.414;2022-10-13T07:23:32;7.72;;;4.68;;
26965;SDS011;14522;52.068;4.414;2022-10-13T07:25:58;8.45;;;4.32;;
26965;SDS011;14522;52.068;4.414;2022-10-13T07:28:26;12.02;;;4.82;;
26965;SDS011;14522;52.068;4.414;2022-10-13T07:30:53;8.93;;;4.80;;
26965;SDS011;14522;52.068;4.414;2022-10-13T07:33:19;9.27;;;5.00;;
26965;SDS011;14522;52.068;4.414;2022-10-13T07:35:45;6.72;;;3.70;;
26965;SDS011;14522;52.068;4.414;2022-10-13T07:38:12;9.40;;;4.60;;
26965;SDS011;14522;52.068;4.414;2022-10-13T07:40:38;8.57;;;4.20;;
26965;SDS011;14522;52.068;4.414;2022-10-13T07:43:05;10.23;;;4.30;;
26965;SDS011;14522;52.068;4.414;2022-10-13T07:45:31;9.90;;;4.10;;
26965;SDS011;14522;52.068;4.414;2022-10-13T07:47:57;8.43;;;4.38;;
26965;SDS011;14522;52.068;4.414;2022-10-13T07:50:23;7.55;;;3.58;;
26965;SDS011;14522;52.068;4.414;2022-10-13T07:52:50;13.02;;;4.40;;
26965;SDS011;14522;52.068;4.414;2022-10-13T07:55:16;7.13;;;4.10;;
26965;SDS011;14522;52.068;4.414;2022-10-13T07:57:42;9.07;;;4.18;;
26965;SDS011;14522;52.068;4.414;2022-10-13T08:00:09;10.10;;;3.63;;
26965;SDS011;14522;52.068;4.414;2022-10-13T08:02:36;10.73;;;3.42;;
26965;SDS011;14522;52.068;4.414;2022-10-13T08:05:02;7.30;;;3.47;;
26965;SDS011;14522;52.068;4.414;2022-10-13T08:07:29;7.63;;;3.67;;
26965;SDS011;14522;52.068;4.414;2022-10-13T08:09:55;6.95;;;2.85;;
26965;SDS011;14522;52.068;4.414;2022-10-13T08:12:21;7.55;;;3.63;;
26965;SDS011;14522;52.068;4.414;2022-10-13T08:14:51;10.70;;;4.68;;
26965;SDS011;14522;52.068;4.414;2022-10-13T08:17:17;7.65;;;3.25;;
26965;SDS011;14522;52.068;4.414;2022-10-13T08:19:44;4.95;;;2.50;;
26965;SDS011;14522;52.068;4.414;2022-10-13T08:22:10;7.15;;;2.80;;
26965;SDS011;14522;52.068;4.414;2022-10-13T08:24:37;7.80;;;3.28;;
26965;SDS011;14522;52.068;4.414;2022-10-13T08:27:03;7.10;;;2.75;;
26965;SDS011;14522;52.068;4.414;2022-10-13T08:29:30;7.43;;;3.35;;
26965;SDS011;14522;52.068;4.414;2022-10-13T08:31:56;9.30;;;4.22;;
26965;SDS011;14522;52.068;4.414;2022-10-13T08:34:23;8.70;;;3.33;;
26965;SDS011;14522;52.068;4.414;2022-10-13T08:36:49;7.03;;;3.35;;
26965;SDS011;14522;52.068;4.414;2022-10-13T08:39:19;7.32;;;3.50;;
26965;SDS011;14522;52.068;4.414;2022-10-13T08:41:45;7.25;;;3.55;;
26965;SDS011;14522;52.068;4.414;2022-10-13T08:44:23;9.10;;;4.28;;
26965;SDS011;14522;52.068;4.414;2022-10-13T08:47:12;6.80;;;3.28;;
26965;SDS011;14522;52.068;4.414;2022-10-13T08:49:40;6.97;;;3.33;;
26965;SDS011;14522;52.068;4.414;2022-10-13T08:52:12;7.00;;;2.90;;
26965;SDS011;14522;52.068;4.414;2022-10-13T08:54:41;7.30;;;3.30;;
26965;SDS011;14522;52.068;4.414;2022-10-13T08:57:08;7.82;;;3.72;;
26965;SDS011;14522;52.068;4.414;2022-10-13T08:59:35;7.57;;;3.03;;
26965;SDS011;14522;52.068;4.414;2022-10-13T09:02:04;8.93;;;3.22;;
26965;SDS011;14522;52.068;4.414;2022-10-13T09:04:35;7.43;;;3.08;;
26965;SDS011;14522;52.068;4.414;2022-10-13T09:07:16;6.20;;;2.95;;
26965;SDS011;14522;52.068;4.414;2022-10-13T09:09:48;6.93;;;3.85;;
26965;SDS011;14522;52.068;4.414;2022-10-13T09:12:14;3.50;;;1.65;;
26965;SDS011;14522;52.068;4.414;2022-10-13T09:14:41;10.20;;;3.78;;
26965;SDS011;14522;52.068;4.414;2022-10-13T09:17:23;11.68;;;4.45;;
26965;SDS011;14522;52.068;4.414;2022-10-13T09:22:33;3.60;;;1.73;;
26965;SDS011;14522;52.068;4.414;2022-10-13T09:27:40;12.88;;;4.70;;
26965;SDS011;14522;52.068;4.414;2022-10-13T09:30:42;8.63;;;5.10;;
26965;SDS011;14522;52.068;4.414;2022-10-13T09:35:45;11.45;;;5.25;;
26965;SDS011;14522;52.068;4.414;2022-10-13T09:38:13;12.73;;;5.75;;
26965;SDS011;14522;52.068;4.414;2022-10-13T09:40:40;7.40;;;4.15;;
26965;SDS011;14522;52.068;4.414;2022-10-13T09:45:50;7.90;;;5.50;;
26965;SDS011;14522;52.068;4.414;2022-10-13T09:48:19;9.98;;;5.55;;
26965;SDS011;14522;52.068;4.414;2022-10-13T09:50:48;11.82;;;6.32;;
26965;SDS011;14522;52.068;4.414;2022-10-13T09:55:47;11.65;;;6.28;;
26965;SDS011;14522;52.068;4.414;2022-10-13T09:58:16;10.98;;;5.93;;
26965;SDS011;14522;52.068;4.414;2022-10-13T10:00:44;11.18;;;5.80;;
26965;SDS011;14522;52.068;4.414;2022-10-13T10:05:43;14.27;;;6.65;;
26965;SDS011;14522;52.068;4.414;2022-10-13T10:08:13;12.13;;;7.53;;
26965;SDS011;14522;52.068;4.414;2022-10-13T10:10:41;15.20;;;7.70;;
26965;SDS011;14522;52.068;4.414;2022-10-13T10:13:09;11.15;;;4.75;;
26965;SDS011;14522;52.068;4.414;2022-10-13T10:15:41;13.82;;;7.10;;
26965;SDS011;14522;52.068;4.414;2022-10-13T10:23:39;14.35;;;7.05;;
26965;SDS011;14522;52.068;4.414;2022-10-13T10:26:12;13.95;;;8.02;;
26965;SDS011;14522;52.068;4.414;2022-10-13T10:33:47;14.05;;;6.65;;
26965;SDS011;14522;52.068;4.414;2022-10-13T10:36:22;11.63;;;6.57;;
26965;SDS011;14522;52.068;4.414;2022-10-13T10:38:51;17.55;;;6.15;;
26965;SDS011;14522;52.068;4.414;2022-10-13T10:46:16;11.30;;;6.63;;
26965;SDS011;14522;52.068;4.414;2022-10-13T10:48:44;12.00;;;6.50;;
26965;SDS011;14522;52.068;4.414;2022-10-13T10:51:12;10.68;;;5.63;;
26965;SDS011;14522;52.068;4.414;2022-10-13T10:53:43;16.45;;;6.72;;
26965;SDS011;14522;52.068;4.414;2022-10-13T10:58:57;11.85;;;7.22;;
26965;SDS011;14522;52.068;4.414;2022-10-13T11:04:23;12.32;;;6.43;;
26965;SDS011;14522;52.068;4.414;2022-10-13T11:06:55;5.68;;;3.13;;
26965;SDS011;14522;52.068;4.414;2022-10-13T11:09:59;12.70;;;6.45;;
26965;SDS011;14522;52.068;4.414;2022-10-13T11:12:24;6.97;;;4.95;;
26965;SDS011;14522;52.068;4.414;2022-10-13T11:17:32;11.50;;;6.65;;
26965;SDS011;14522;52.068;4.414;2022-10-13T11:19:59;12.80;;;8.55;;
26965;SDS011;14522;52.068;4.414;2022-10-13T11:22:26;13.70;;;7.32;;
26965;SDS011;14522;52.068;4.414;2022-10-13T11:25:00;13.63;;;9.05;;
26965;SDS011;14522;52.068;4.414;2022-10-13T11:27:36;14.00;;;7.18;;
26965;SDS011;14522;52.068;4.414;2022-10-13T11:30:03;12.88;;;7.75;;
26965;SDS011;14522;52.068;4.414;2022-10-13T11:45:41;9.88;;;6.38;;
26965;SDS011;14522;52.068;4.414;2022-10-13T11:53:15;18.92;;;8.32;;
26965;SDS011;14522;52.068;4.414;2022-10-13T11:55:44;13.52;;;7.38;;
26965;SDS011;14522;52.068;4.414;2022-10-13T12:00:52;10.98;;;4.97;;
26965;SDS011;14522;52.068;4.414;2022-10-13T12:03:19;12.75;;;6.68;;
26965;SDS011;14522;52.068;4.414;2022-10-13T12:05:47;14.27;;;6.63;;
26965;SDS011;14522;52.068;4.414;2022-10-13T12:08:13;16.27;;;6.68;;
26965;SDS011;14522;52.068;4.414;2022-10-13T12:10:40;10.15;;;5.82;;
26965;SDS011;14522;52.068;4.414;2022-10-13T12:13:18;11.10;;;6.10;;
26965;SDS011;14522;52.068;4.414;2022-10-13T12:15:45;12.02;;;6.10;;
26965;SDS011;14522;52.068;4.414;2022-10-13T12:18:20;8.40;;;3.17;;
26965;SDS011;14522;52.068;4.414;2022-10-13T12:20:53;3.77;;;1.87;;
26965;SDS011;14522;52.068;4.414;2022-10-13T12:23:20;3.83;;;1.10;;
26965;SDS011;14522;52.068;4.414;2022-10-13T12:25:47;1.48;;;0.90;;
26965;SDS011;14522;52.068;4.414;2022-10-13T12:28:17;1.30;;;0.90;;
26965;SDS011;14522;52.068;4.414;2022-10-13T12:30:58;1.77;;;0.90;;
26965;SDS011;14522;52.068;4.414;2022-10-13T12:33:32;1.27;;;0.75;;
26965;SDS011;14522;52.068;4.414;2022-10-13T12:36:10;1.63;;;0.63;;
26965;SDS011;14522;52.068;4.414;2022-10-13T12:38:37;1.25;;;0.80;;
26965;SDS011;14522;52.068;4.414;2022-10-13T12:41:04;3.53;;;0.77;;
26965;SDS011;14522;52.068;4.414;2022-10-13T12:43:31;1.65;;;0.90;;
26965;SDS011;14522;52.068;4.414;2022-10-13T12:45:57;3.70;;;2.55;;
26965;SDS011;14522;52.068;4.414;2022-10-13T12:48:34;4.78;;;2.85;;
26965;SDS011;14522;52.068;4.414;2022-10-13T12:51:13;5.75;;;2.38;;
26965;SDS011;14522;52.068;4.414;2022-10-13T12:53:40;3.80;;;2.03;;
26965;SDS011;14522;52.068;4.414;2022-10-13T12:56:16;5.13;;;2.47;;
26965;SDS011;14522;52.068;4.414;2022-10-13T12:58:42;3.55;;;1.83;;
26965;SDS011;14522;52.068;4.414;2022-10-13T13:03:38;1.20;;;1.00;;
26965;SDS011;14522;52.068;4.414;2022-10-13T13:06:52;3.13;;;1.10;;
26965;SDS011;14522;52.068;4.414;2022-10-13T13:12:05;1.50;;;0.90;;
26965;SDS011;14522;52.068;4.414;2022-10-13T13:14:41;1.63;;;0.80;;
26965;SDS011;14522;52.068;4.414;2022-10-13T13:19:34;6.38;;;0.85;;
26965;SDS011;14522;52.068;4.414;2022-10-13T13:22:02;2.33;;;0.90;;
26965;SDS011;14522;52.068;4.414;2022-10-13T13:24:29;5.20;;;0.90;;
26965;SDS011;14522;52.068;4.414;2022-10-13T13:27:31;1.23;;;0.77;;
26965;SDS011;14522;52.068;4.414;2022-10-13T13:29:53;0.95;;;0.70;;
26965;SDS011;14522;52.068;4.414;2022-10-13T13:32:20;1.88;;;0.80;;
26965;SDS011;14522;52.068;4.414;2022-10-13T13:34:47;1.58;;;0.82;;
26965;SDS011;14522;52.068;4.414;2022-10-13T13:37:24;1.17;;;0.70;;
26965;SDS011;14522;52.068;4.414;2022-10-13T13:39:51;2.30;;;0.60;;
26965;SDS011;14522;52.068;4.414;2022-10-13T13:42:17;0.90;;;0.38;;
26965;SDS011;14522;52.068;4.414;2022-10-13T13:44:44;0.95;;;0.50;;
26965;SDS011;14522;52.068;4.414;2022-10-13T13:47:14;1.90;;;0.50;;
26965;SDS011;14522;52.068;4.414;2022-10-13T13:49:40;0.90;;;0.40;;
26965;SDS011;14522;52.068;4.414;2022-10-13T13:52:07;1.45;;;0.40;;
26965;SDS011;14522;52.068;4.414;2022-10-13T13:54:33;0.40;;;0.20;;
26965;SDS011;14522;52.068;4.414;2022-10-13T13:56:59;3.63;;;0.65;;
26965;SDS011;14522;52.068;4.414;2022-10-13T13:59:26;0.85;;;0.50;;
26965;SDS011;14522;52.068;4.414;2022-10-13T14:01:52;0.85;;;0.45;;
26965;SDS011;14522;52.068;4.414;2022-10-13T14:04:19;0.70;;;0.50;;
26965;SDS011;14522;52.068;4.414;2022-10-13T14:06:45;0.80;;;0.40;;
26965;SDS011;14522;52.068;4.414;2022-10-13T14:09:11;1.15;;;0.50;;
26965;SDS011;14522;52.068;4.414;2022-10-13T14:11:38;0.93;;;0.30;;
26965;SDS011;14522;52.068;4.414;2022-10-13T14:14:04;1.98;;;0.38;;
26965;SDS011;14522;52.068;4.414;2022-10-13T14:16:30;1.65;;;0.40;;
26965;SDS011;14522;52.068;4.414;2022-10-13T14:18:57;0.38;;;0.38;;
26965;SDS011;14522;52.068;4.414;2022-10-13T14:21:23;0.90;;;0.50;;
26965;SDS011;14522;52.068;4.414;2022-10-13T14:23:49;1.65;;;0.55;;
26965;SDS011;14522;52.068;4.414;2022-10-13T14:26:16;0.82;;;0.47;;
26965;SDS011;14522;52.068;4.414;2022-10-13T14:28:43;1.77;;;0.40;;
26965;SDS011;14522;52.068;4.414;2022-10-13T14:31:10;1.42;;;0.60;;
26965;SDS011;14522;52.068;4.414;2022-10-13T14:33:36;0.73;;;0.70;;
26965;SDS011;14522;52.068;4.414;2022-10-13T14:36:04;0.85;;;0.45;;
26965;SDS011;14522;52.068;4.414;2022-10-13T14:38:31;0.85;;;0.45;;
26965;SDS011;14522;52.068;4.414;2022-10-13T14:40:58;0.40;;;0.40;;
26965;SDS011;14522;52.068;4.414;2022-10-13T14:43:25;2.00;;;0.40;;
26965;SDS011;14522;52.068;4.414;2022-10-13T14:45:52;0.77;;;0.47;;
26965;SDS011;14522;52.068;4.414;2022-10-13T14:48:18;1.00;;;0.50;;
26965;SDS011;14522;52.068;4.414;2022-10-13T14:50:49;0.93;;;0.50;;
26965;SDS011;14522;52.068;4.414;2022-10-13T14:53:16;0.90;;;0.40;;
26965;SDS011;14522;52.068;4.414;2022-10-13T14:55:43;3.38;;;1.40;;
26965;SDS011;14522;52.068;4.414;2022-10-13T14:58:10;1.00;;;0.60;;
26965;SDS011;14522;52.068;4.414;2022-10-13T15:00:36;0.40;;;0.35;;
26965;SDS011;14522;52.068;4.414;2022-10-13T15:03:03;1.60;;;0.93;;
26965;SDS011;14522;52.068;4.414;2022-10-13T15:05:30;0.77;;;0.40;;
26965;SDS011;14522;52.068;4.414;2022-10-13T15:07:56;0.80;;;0.47;;
26965;SDS011;14522;52.068;4.414;2022-10-13T15:10:22;0.50;;;0.35;;
26965;SDS011;14522;52.068;4.414;2022-10-13T15:12:49;1.30;;;0.60;;
26965;SDS011;14522;52.068;4.414;2022-10-13T15:15:15;2.38;;;0.40;;
26965;SDS011;14522;52.068;4.414;2022-10-13T15:17:41;2.50;;;0.60;;
26965;SDS011;14522;52.068;4.414;2022-10-13T15:20:08;0.95;;;0.50;;
26965;SDS011;14522;52.068;4.414;2022-10-13T15:22:34;2.72;;;0.35;;
26965;SDS011;14522;52.068;4.414;2022-10-13T15:25:01;0.63;;;0.50;;
26965;SDS011;14522;52.068;4.414;2022-10-13T15:27:29;1.63;;;0.60;;
26965;SDS011;14522;52.068;4.414;2022-10-13T15:29:55;0.80;;;0.68;;
26965;SDS011;14522;52.068;4.414;2022-10-13T15:32:22;1.15;;;0.65;;
26965;SDS011;14522;52.068;4.414;2022-10-13T15:34:48;0.93;;;0.55;;
26965;SDS011;14522;52.068;4.414;2022-10-13T15:37:15;1.73;;;0.70;;
26965;SDS011;14522;52.068;4.414;2022-10-13T15:39:41;3.17;;;0.70;;
26965;SDS011;14522;52.068;4.414;2022-10-13T15:42:08;0.43;;;0.30;;
26965;SDS011;14522;52.068;4.414;2022-10-13T15:44:35;0.80;;;0.50;;
26965;SDS011;14522;52.068;4.414;2022-10-13T15:47:21;3.30;;;0.45;;
26965;SDS011;14522;52.068;4.414;2022-10-13T15:49:48;0.68;;;0.30;;
26965;SDS011;14522;52.068;4.414;2022-10-13T15:52:14;1.27;;;0.50;;
26965;SDS011;14522;52.068;4.414;2022-10-13T15:54:40;1.90;;;0.75;;
26965;SDS011;14522;52.068;4.414;2022-10-13T15:57:07;0.93;;;0.50;;
26965;SDS011;14522;52.068;4.414;2022-10-13T15:59:33;0.90;;;0.60;;
26965;SDS011;14522;52.068;4.414;2022-10-13T16:01:59;0.63;;;0.32;;
26965;SDS011;14522;52.068;4.414;2022-10-13T16:04:26;1.27;;;0.47;;
26965;SDS011;14522;52.068;4.414;2022-10-13T16:06:52;0.82;;;0.47;;
26965;SDS011;14522;52.068;4.414;2022-10-13T16:09:18;0.55;;;0.47;;
26965;SDS011;14522;52.068;4.414;2022-10-13T16:11:45;1.33;;;0.50;;